VOBG/BLR METAR and TAF weather

Enter ICAO airport designator
Station Type Date Time Source
VOBG METAR 2022/05/25 00:30 UTC NOAA

VOBG 250030Z 26006KT 6000 SCT012 22/20 Q1013 NOSIG


Station Type Date Time Source
VOBG Decoded METAR 2022/05/25 00:30 UTC NOAA

Bangalore / Hindustan, India (VOBG) 12-57N 077-40E
May 24, 2022 - 08:30 PM EDT / 2022.05.25 0030 UTC
Wind: from the W (260 degrees) at 7 MPH (6 KT):0
Visibility: 3 mile(s):0
Sky conditions: partly cloudy
Temperature: 71 F (22 C)
Dew Point: 68 F (20 C)
Relative Humidity: 88%
Pressure (altimeter): 29.91 in. Hg (1013 hPa)
ob: VOBG 250030Z 26006KT 6000 SCT012 22/20 Q1013 NOSIG
cycle: 0

Station Type Date Time Source
VOBG TAF 2021/10/27 00:00 UTC NOAA

TAF VOBG 262300Z 2700/2709 VRB02KT 3000 BR BKN008 SCT012
TEMPO 2700/2703 0800 FG BKN008 SCT012
BECMG 2704/2705 6000 SCT012 SCT020

Example: see airport list